createdAt,value
2022-11-05T00:00:29.924Z,8.30
2022-11-05T00:03:16.906Z,8.00
2022-11-05T00:06:03.237Z,6.60
2022-11-05T00:08:48.609Z,8.77
2022-11-05T00:11:18.224Z,6.80
2022-11-05T00:14:03.967Z,4.80
2022-11-05T00:16:46.587Z,5.77
2022-11-05T00:19:16.695Z,7.40
2022-11-05T00:22:01.948Z,5.67
2022-11-05T00:24:47.158Z,6.17
2022-11-05T00:27:14.774Z,5.60
2022-11-05T00:29:42.341Z,8.00
2022-11-05T00:32:09.948Z,5.80
2022-11-05T00:34:38.908Z,8.87
2022-11-05T00:37:06.846Z,5.67
2022-11-05T00:39:34.448Z,5.47
2022-11-05T00:42:19.581Z,6.67
2022-11-05T00:45:02.534Z,7.77
2022-11-05T00:47:47.788Z,7.87
2022-11-05T00:50:17.525Z,7.20
2022-11-05T00:52:57.578Z,4.00
2022-11-05T00:55:34.221Z,6.37
2022-11-05T00:58:03.832Z,4.70
2022-11-05T01:00:33.010Z,4.60
2022-11-05T01:03:02.596Z,4.23
2022-11-05T01:05:33.880Z,5.17
2022-11-05T01:08:01.919Z,4.37
2022-11-05T01:10:30.198Z,4.47
2022-11-05T01:12:58.685Z,5.57
2022-11-05T01:15:26.341Z,5.93
2022-11-05T01:17:53.969Z,6.37
2022-11-05T01:20:21.626Z,6.27
2022-11-05T01:22:50.538Z,6.00
2022-11-05T01:25:18.224Z,5.13
2022-11-05T01:27:46.014Z,7.23
2022-11-05T01:30:14.750Z,6.93
2022-11-05T01:32:42.516Z,5.73
2022-11-05T01:35:14.234Z,5.90
2022-11-05T01:37:42.118Z,4.67
2022-11-05T01:40:12.495Z,4.40
2022-11-05T01:42:40.078Z,11.00
2022-11-05T01:45:15.003Z,6.27
2022-11-05T01:48:02.586Z,5.93
2022-11-05T01:50:38.353Z,7.73
2022-11-05T01:53:13.567Z,6.67
2022-11-05T01:55:46.945Z,7.73
2022-11-05T01:58:17.733Z,8.70
2022-11-05T02:00:45.651Z,8.07
2022-11-05T02:03:16.136Z,6.87
2022-11-05T02:05:44.397Z,9.83
2022-11-05T02:08:17.473Z,7.67
2022-11-05T02:10:46.876Z,9.10
2022-11-05T02:13:14.581Z,8.27
2022-11-05T02:15:52.079Z,11.13
2022-11-05T02:18:30.697Z,11.90
2022-11-05T02:21:15.242Z,13.80
2022-11-05T02:24:24.458Z,12.63
2022-11-05T02:27:11.043Z,10.43
2022-11-05T02:30:13.082Z,13.10
2022-11-05T02:32:57.747Z,9.90
2022-11-05T02:35:38.693Z,10.70
2022-11-05T02:38:10.032Z,11.70
2022-11-05T02:40:46.845Z,15.30
2022-11-05T02:43:23.353Z,13.00
2022-11-05T02:46:03.989Z,13.27
2022-11-05T02:48:43.896Z,10.67
2022-11-05T02:51:18.815Z,11.80
2022-11-05T02:53:51.931Z,17.33
2022-11-05T02:56:24.966Z,12.63
2022-11-05T02:58:52.592Z,10.93
2022-11-05T03:01:20.195Z,14.77
2022-11-05T03:03:54.950Z,11.33
2022-11-05T03:06:46.628Z,15.90
2022-11-05T03:09:30.931Z,14.83
2022-11-05T03:12:09.114Z,12.60
2022-11-05T03:14:44.573Z,13.50
2022-11-05T03:17:22.387Z,8.73
2022-11-05T03:20:02.197Z,10.17
2022-11-05T03:22:35.307Z,9.10
2022-11-05T03:25:06.493Z,9.37
2022-11-05T03:27:38.206Z,11.27
2022-11-05T03:30:11.748Z,10.20
2022-11-05T03:32:42.891Z,9.20
2022-11-05T03:35:17.206Z,7.17
2022-11-05T03:37:48.223Z,10.77
2022-11-05T03:40:19.267Z,8.97
2022-11-05T03:42:50.638Z,6.53
2022-11-05T03:45:23.580Z,7.70
2022-11-05T03:47:54.283Z,7.53
2022-11-05T03:50:28.473Z,5.83
2022-11-05T03:53:00.988Z,7.77
2022-11-05T03:55:36.130Z,4.60
2022-11-05T03:58:05.912Z,4.50
2022-11-05T04:00:34.531Z,6.13
2022-11-05T04:03:02.206Z,4.73
2022-11-05T04:05:31.536Z,5.80
2022-11-05T04:08:16.811Z,6.20
2022-11-05T04:11:01.354Z,6.83
2022-11-05T04:13:29.549Z,6.80
2022-11-05T04:16:15.652Z,5.73
2022-11-05T04:18:44.121Z,5.67
2022-11-05T04:21:38.811Z,5.50
2022-11-05T04:24:09.979Z,5.30
2022-11-05T04:26:39.118Z,4.40
2022-11-05T04:29:24.915Z,5.43
2022-11-05T04:31:52.939Z,3.97
2022-11-05T04:34:21.982Z,4.97
2022-11-05T04:36:51.631Z,5.37
2022-11-05T04:39:20.038Z,5.13
2022-11-05T04:41:48.505Z,5.20
2022-11-05T04:44:16.308Z,4.93
2022-11-05T04:46:44.126Z,3.93
2022-11-05T04:49:11.742Z,4.40
2022-11-05T04:51:39.302Z,4.00
2022-11-05T04:54:08.245Z,4.50
2022-11-05T04:56:35.850Z,3.63
2022-11-05T04:59:03.484Z,3.53
2022-11-05T05:01:31.180Z,3.57
2022-11-05T05:03:58.882Z,5.13
2022-11-05T05:06:26.673Z,6.00
2022-11-05T05:08:54.355Z,4.70
2022-11-05T05:11:23.272Z,3.57
2022-11-05T05:13:51.517Z,4.27
2022-11-05T05:16:22.096Z,4.30
2022-11-05T05:18:50.754Z,4.73
2022-11-05T05:21:37.655Z,2.60
2022-11-05T05:24:05.998Z,3.37
2022-11-05T05:26:34.932Z,4.80
2022-11-05T05:29:02.562Z,4.13
2022-11-05T05:31:30.178Z,3.40
2022-11-05T05:33:58.457Z,4.73
2022-11-05T05:36:26.035Z,5.00
2022-11-05T05:38:53.748Z,4.00
2022-11-05T05:41:21.798Z,3.73
2022-11-05T05:43:51.049Z,4.10
2022-11-05T05:46:19.851Z,5.47
2022-11-05T05:48:50.502Z,4.10
2022-11-05T05:51:19.144Z,4.33
2022-11-05T05:53:46.909Z,4.30
2022-11-05T05:56:19.119Z,5.93
2022-11-05T05:58:47.030Z,6.97
2022-11-05T06:01:19.593Z,5.10
2022-11-05T06:03:48.217Z,5.07
2022-11-05T06:06:19.496Z,7.27
2022-11-05T06:08:47.415Z,6.93
2022-11-05T06:11:15.150Z,5.57
2022-11-05T06:13:42.768Z,7.37
2022-11-05T06:16:11.646Z,7.20
2022-11-05T06:18:40.638Z,7.73
2022-11-05T06:21:10.773Z,9.17
2022-11-05T06:23:40.238Z,6.97
2022-11-05T06:26:09.748Z,5.90
2022-11-05T06:28:37.376Z,11.30
2022-11-05T06:31:05.571Z,5.37
2022-11-05T06:33:33.231Z,8.37
2022-11-05T06:36:02.897Z,6.23
2022-11-05T06:38:33.598Z,6.60
2022-11-05T06:41:07.140Z,6.57
2022-11-05T06:43:36.841Z,7.10
2022-11-05T06:46:04.785Z,6.63
2022-11-05T06:48:32.587Z,7.43
2022-11-05T06:51:00.227Z,8.47
2022-11-05T06:53:31.450Z,7.63
2022-11-05T06:56:02.447Z,7.60
2022-11-05T06:58:30.869Z,11.67
2022-11-05T07:01:01.297Z,9.07
2022-11-05T07:03:28.955Z,7.57
2022-11-05T07:05:59.025Z,7.80
2022-11-05T07:08:26.921Z,9.67
2022-11-05T07:10:55.872Z,11.63
2022-11-05T07:13:23.629Z,12.30
2022-11-05T07:15:51.205Z,9.13
2022-11-05T07:18:18.865Z,9.27
2022-11-05T07:20:46.505Z,12.57
2022-11-05T07:23:15.608Z,12.33
2022-11-05T07:25:44.136Z,14.70
2022-11-05T07:28:14.351Z,11.50
2022-11-05T07:30:42.045Z,13.80
2022-11-05T07:33:10.633Z,10.83
2022-11-05T07:35:38.458Z,11.00
2022-11-05T07:38:06.054Z,14.23
2022-11-05T07:40:33.667Z,9.37
2022-11-05T07:43:02.934Z,10.07
2022-11-05T07:45:32.381Z,9.73
2022-11-05T07:48:01.643Z,9.50
2022-11-05T07:50:31.946Z,8.33
2022-11-05T07:53:03.142Z,13.67
2022-11-05T07:55:31.166Z,12.60
2022-11-05T07:57:59.070Z,13.10
2022-11-05T08:00:27.869Z,11.30
2022-11-05T08:03:09.264Z,11.53
2022-11-05T08:05:38.831Z,13.13
2022-11-05T08:08:07.927Z,9.63
2022-11-05T08:10:36.050Z,9.07
2022-11-05T08:13:03.778Z,10.03
2022-11-05T08:15:32.130Z,14.60
2022-11-05T08:18:02.985Z,11.47
2022-11-05T08:20:31.467Z,8.63
2022-11-05T08:22:59.153Z,9.97
2022-11-05T08:25:27.197Z,10.20
2022-11-05T08:27:58.858Z,11.77
2022-11-05T08:30:27.246Z,9.30
2022-11-05T08:32:58.245Z,10.50
2022-11-05T08:35:28.138Z,13.87
2022-11-05T08:37:58.938Z,10.83
2022-11-05T08:40:26.843Z,10.40
2022-11-05T08:42:54.642Z,12.90
2022-11-05T08:45:22.235Z,10.00
2022-11-05T08:47:49.767Z,10.80
2022-11-05T08:50:17.707Z,10.30
2022-11-05T08:52:46.679Z,10.57
2022-11-05T08:55:14.258Z,8.50
2022-11-05T08:57:41.879Z,11.57
2022-11-05T09:00:11.087Z,8.57
2022-11-05T09:02:38.755Z,9.60
2022-11-05T09:05:06.808Z,10.87
2022-11-05T09:07:34.552Z,7.53
2022-11-05T09:10:03.500Z,9.70
2022-11-05T09:12:31.169Z,13.83
2022-11-05T09:14:58.850Z,8.80
2022-11-05T09:17:26.467Z,10.63
2022-11-05T09:19:54.118Z,10.33
2022-11-05T09:22:21.705Z,10.33
2022-11-05T09:24:49.293Z,10.23
2022-11-05T09:27:18.863Z,9.93
2022-11-05T09:29:46.444Z,13.53
2022-11-05T09:32:18.358Z,9.43
2022-11-05T09:34:45.983Z,8.17
2022-11-05T09:37:13.595Z,11.87
2022-11-05T09:39:41.183Z,15.97
2022-11-05T09:42:10.892Z,8.47
2022-11-05T09:44:44.076Z,7.30
2022-11-05T09:47:16.748Z,8.37
2022-11-05T09:49:50.258Z,12.77
2022-11-05T09:52:22.438Z,7.60
2022-11-05T09:54:51.408Z,10.27
2022-11-05T09:57:25.097Z,9.50
2022-11-05T09:59:57.837Z,6.50
2022-11-05T10:02:28.673Z,7.70
2022-11-05T10:05:00.014Z,8.93
2022-11-05T10:07:32.884Z,9.48
2022-11-05T10:10:04.372Z,8.00
2022-11-05T10:12:40.476Z,5.87
2022-11-05T10:15:15.177Z,7.57
2022-11-05T10:17:48.692Z,7.23
2022-11-05T10:20:23.808Z,7.77
2022-11-05T10:22:57.552Z,4.40
2022-11-05T10:25:37.878Z,7.65
2022-11-05T10:28:06.974Z,7.15
2022-11-05T10:30:35.311Z,8.70
2022-11-05T10:33:07.564Z,7.93
2022-11-05T10:35:48.630Z,11.07
2022-11-05T10:38:16.634Z,8.17
2022-11-05T10:40:59.461Z,9.47
2022-11-05T10:43:36.331Z,7.00
2022-11-05T10:46:22.514Z,34.10
2022-11-05T10:49:00.326Z,6.13
2022-11-05T10:51:28.425Z,28.20
2022-11-05T10:54:01.843Z,6.17
2022-11-05T10:56:33.716Z,6.18
2022-11-05T10:59:07.956Z,7.90
2022-11-05T11:01:39.648Z,5.60
2022-11-05T11:04:25.838Z,6.00
2022-11-05T11:06:56.608Z,10.30
2022-11-05T11:09:27.648Z,5.00
2022-11-05T11:12:02.481Z,5.53
2022-11-05T11:14:30.812Z,6.50
2022-11-05T11:17:18.572Z,14.23
2022-11-05T11:19:46.498Z,6.93
2022-11-05T11:22:19.716Z,4.95
2022-11-05T11:24:49.372Z,4.25
2022-11-05T11:27:22.534Z,3.40
2022-11-05T11:29:56.033Z,5.75
2022-11-05T11:32:28.619Z,6.05
2022-11-05T11:34:58.398Z,7.53
2022-11-05T11:37:30.050Z,6.32
2022-11-05T11:40:01.320Z,6.28
2022-11-05T11:42:32.740Z,6.78
2022-11-05T11:45:05.218Z,7.57
2022-11-05T11:47:33.762Z,5.28
2022-11-05T11:50:02.938Z,5.15
2022-11-05T11:52:33.042Z,5.43
2022-11-05T11:55:22.562Z,6.70
2022-11-05T11:57:53.408Z,9.37
2022-11-05T12:00:26.788Z,4.50
2022-11-05T12:03:09.118Z,5.73
2022-11-05T12:05:46.156Z,7.57
2022-11-05T12:08:36.693Z,4.83
2022-11-05T12:11:11.647Z,7.90
2022-11-05T12:14:02.207Z,3.70
2022-11-05T12:16:46.463Z,7.47
2022-11-05T12:19:25.589Z,10.83
2022-11-05T12:22:05.127Z,7.27
2022-11-05T12:25:07.477Z,7.90
2022-11-05T12:27:49.005Z,6.00
2022-11-05T12:30:19.756Z,6.13
2022-11-05T12:33:13.132Z,6.77
2022-11-05T12:35:57.619Z,6.33
2022-11-05T12:38:42.125Z,2.77
2022-11-05T12:41:22.061Z,6.97
2022-11-05T12:44:02.867Z,6.83
2022-11-05T12:46:38.696Z,3.93
2022-11-05T12:49:33.674Z,4.77
2022-11-05T12:52:11.598Z,3.17
2022-11-05T12:54:53.464Z,6.30
2022-11-05T12:57:22.916Z,3.53
2022-11-05T12:59:54.784Z,4.87
2022-11-05T13:02:30.649Z,4.80
2022-11-05T13:05:05.045Z,4.37
2022-11-05T13:07:36.934Z,4.17
2022-11-05T13:10:09.143Z,6.93
2022-11-05T13:12:40.987Z,3.83
2022-11-05T13:15:22.837Z,10.97
2022-11-05T13:17:56.267Z,7.53
2022-11-05T13:20:27.457Z,4.37
2022-11-05T13:22:59.920Z,4.27
2022-11-05T13:25:30.488Z,4.23
2022-11-05T13:28:07.188Z,4.47
2022-11-05T13:30:38.332Z,4.77
2022-11-05T13:33:16.128Z,6.03
2022-11-05T13:35:48.750Z,8.90
2022-11-05T13:38:40.722Z,6.90
2022-11-05T13:41:26.582Z,8.03
2022-11-05T13:44:23.536Z,9.77
2022-11-05T13:47:20.688Z,6.17
2022-11-05T13:50:20.307Z,8.17
2022-11-05T13:53:05.238Z,7.47
2022-11-05T13:55:48.981Z,5.67
2022-11-05T13:58:46.456Z,8.03
2022-11-05T14:01:27.304Z,6.97
2022-11-05T14:03:57.471Z,8.37
2022-11-05T14:06:29.439Z,9.30
2022-11-05T14:09:01.244Z,6.47
2022-11-05T14:11:31.822Z,9.77
2022-11-05T14:14:02.510Z,7.83
2022-11-05T14:16:48.098Z,8.03
2022-11-05T14:19:31.091Z,9.33
2022-11-05T14:22:00.896Z,8.73
2022-11-05T14:24:42.501Z,13.13
2022-11-05T14:27:45.433Z,7.37
2022-11-05T14:30:42.133Z,10.77
2022-11-05T14:33:32.952Z,9.53
2022-11-05T14:36:36.232Z,9.07
2022-11-05T14:39:24.649Z,10.67
2022-11-05T14:42:02.811Z,12.80
2022-11-05T14:44:33.636Z,9.80
2022-11-05T14:47:04.353Z,12.27
2022-11-05T14:49:36.707Z,11.53
2022-11-05T14:52:08.993Z,12.07
2022-11-05T14:54:43.923Z,8.40
2022-11-05T14:57:14.070Z,11.17
2022-11-05T15:00:03.071Z,9.43
2022-11-05T15:02:36.892Z,8.47
2022-11-05T15:05:40.153Z,11.77
2022-11-05T15:08:39.271Z,11.83
2022-11-05T15:11:14.444Z,11.80
2022-11-05T15:13:51.810Z,12.77
2022-11-05T15:16:23.954Z,12.33
2022-11-05T15:18:53.528Z,10.47
2022-11-05T15:21:22.431Z,14.83
2022-11-05T15:23:54.170Z,10.77
2022-11-05T15:26:27.423Z,9.37
2022-11-05T15:28:57.106Z,10.53
2022-11-05T15:31:31.384Z,10.67
2022-11-05T15:34:19.351Z,9.60
2022-11-05T15:36:53.180Z,14.50
2022-11-05T15:39:31.029Z,7.83
2022-11-05T15:42:02.658Z,10.97
2022-11-05T15:44:32.994Z,12.10
2022-11-05T15:47:09.083Z,10.93
2022-11-05T15:49:37.508Z,10.83
2022-11-05T15:52:05.825Z,11.83
2022-11-05T15:54:34.036Z,11.97
2022-11-05T15:57:03.711Z,9.43
2022-11-05T15:59:31.972Z,19.40
2022-11-05T16:02:06.729Z,15.33
2022-11-05T16:04:35.972Z,10.00
2022-11-05T16:07:10.388Z,13.03
2022-11-05T16:09:41.623Z,9.27
2022-11-05T16:12:15.946Z,14.10
2022-11-05T16:14:43.661Z,11.13
2022-11-05T16:17:19.522Z,13.03
2022-11-05T16:19:47.705Z,13.20
2022-11-05T16:22:15.525Z,9.57
2022-11-05T16:24:43.588Z,10.50
2022-11-05T16:27:19.453Z,11.33
2022-11-05T16:29:51.174Z,10.83
2022-11-05T16:32:28.524Z,10.33
2022-11-05T16:35:00.347Z,10.83
2022-11-05T16:37:28.936Z,8.87
2022-11-05T16:39:56.689Z,10.43
2022-11-05T16:42:40.169Z,10.37
2022-11-05T16:45:11.380Z,11.73
2022-11-05T16:47:39.209Z,13.63
2022-11-05T16:50:18.709Z,11.77
2022-11-05T16:52:47.024Z,11.27
2022-11-05T16:55:15.841Z,9.00
2022-11-05T16:57:47.573Z,10.00
2022-11-05T17:00:17.903Z,9.13
2022-11-05T17:02:46.245Z,11.70
2022-11-05T17:05:19.712Z,12.00
2022-11-05T17:07:48.034Z,11.30
2022-11-05T17:10:15.824Z,12.87
2022-11-05T17:12:46.063Z,13.90
2022-11-05T17:15:24.916Z,8.37
2022-11-05T17:17:53.727Z,11.60
2022-11-05T17:20:28.779Z,16.47
2022-11-05T17:22:57.423Z,11.10
2022-11-05T17:25:26.015Z,14.50
2022-11-05T17:27:55.208Z,15.53
2022-11-05T17:30:24.430Z,12.97
2022-11-05T17:32:52.201Z,14.00
2022-11-05T17:35:20.248Z,11.67
2022-11-05T17:37:48.206Z,12.57
2022-11-05T17:40:18.385Z,8.47
2022-11-05T17:42:46.666Z,15.13
2022-11-05T17:45:16.265Z,12.93
2022-11-05T17:47:44.540Z,9.63
2022-11-05T17:50:14.051Z,15.27
2022-11-05T17:52:41.735Z,11.43
2022-11-05T17:55:16.412Z,13.30
2022-11-05T17:57:45.713Z,15.97
2022-11-05T18:00:16.702Z,11.17
2022-11-05T18:02:45.969Z,10.90
2022-11-05T18:05:14.289Z,13.07
2022-11-05T18:07:42.048Z,14.63
2022-11-05T18:10:10.561Z,15.87
2022-11-05T18:12:38.424Z,11.27
2022-11-05T18:15:07.297Z,16.03
2022-11-05T18:17:36.757Z,13.10
2022-11-05T18:20:09.916Z,14.80
2022-11-05T18:22:40.853Z,14.10
2022-11-05T18:25:12.356Z,21.10
2022-11-05T18:27:40.776Z,16.40
2022-11-05T18:30:10.528Z,18.37
2022-11-05T18:32:39.954Z,10.67
2022-11-05T18:35:08.095Z,12.00
2022-11-05T18:37:35.698Z,14.57
2022-11-05T18:40:03.337Z,16.30
2022-11-05T18:42:31.238Z,13.60
2022-11-05T18:44:58.826Z,14.83
2022-11-05T18:47:26.946Z,11.97
2022-11-05T18:49:55.880Z,14.33
2022-11-05T18:52:23.693Z,12.10
2022-11-05T18:54:51.300Z,12.60
2022-11-05T18:57:18.949Z,14.40
2022-11-05T18:59:46.675Z,12.90
2022-11-05T19:02:15.458Z,11.23
2022-11-05T19:05:06.579Z,16.63
2022-11-05T19:07:36.822Z,15.90
2022-11-05T19:10:05.139Z,14.60
2022-11-05T19:12:33.628Z,15.97
2022-11-05T19:15:02.937Z,17.33
2022-11-05T19:17:32.344Z,14.97
2022-11-05T19:19:59.956Z,16.13
2022-11-05T19:22:27.733Z,16.40
2022-11-05T19:24:56.840Z,15.27
2022-11-05T19:27:24.461Z,18.47
2022-11-05T19:29:52.128Z,18.43
2022-11-05T19:32:21.154Z,19.47
2022-11-05T19:34:48.764Z,15.73
2022-11-05T19:37:16.574Z,20.10
2022-11-05T19:39:44.256Z,17.13
2022-11-05T19:42:13.213Z,14.77
2022-11-05T19:44:41.510Z,19.03
2022-11-05T19:47:09.159Z,21.83
2022-11-05T19:49:36.828Z,22.57
2022-11-05T19:52:04.590Z,27.97
2022-11-05T19:54:32.244Z,19.83
2022-11-05T19:56:59.941Z,17.77
2022-11-05T19:59:29.187Z,21.13
2022-11-05T20:01:56.986Z,17.37
2022-11-05T20:04:24.982Z,17.70
2022-11-05T20:06:52.670Z,16.90
2022-11-05T20:09:22.140Z,17.70
2022-11-05T20:11:51.048Z,19.20
2022-11-05T20:14:18.814Z,19.90
2022-11-05T20:16:47.996Z,16.77
2022-11-05T20:19:17.767Z,17.80
2022-11-05T20:21:46.068Z,15.00
2022-11-05T20:24:20.541Z,19.77
2022-11-05T20:26:52.287Z,14.93
2022-11-05T20:29:20.214Z,17.43
2022-11-05T20:31:49.351Z,16.30
2022-11-05T20:34:16.922Z,15.63
2022-11-05T20:36:44.608Z,15.77
2022-11-05T20:39:12.709Z,19.07
2022-11-05T20:41:40.377Z,20.17
2022-11-05T20:44:08.075Z,16.87
2022-11-05T20:46:35.680Z,15.53
2022-11-05T20:49:04.839Z,16.40
2022-11-05T20:51:32.532Z,16.33
2022-11-05T20:54:01.822Z,16.27
2022-11-05T20:56:31.361Z,15.53
2022-11-05T20:59:00.339Z,16.97
2022-11-05T21:01:29.328Z,15.83
2022-11-05T21:03:57.374Z,15.70
2022-11-05T21:06:26.830Z,17.33
2022-11-05T21:08:54.499Z,15.93
2022-11-05T21:11:22.124Z,12.60
2022-11-05T21:13:50.059Z,15.63
2022-11-05T21:16:19.224Z,16.03
2022-11-05T21:18:47.731Z,17.57
2022-11-05T21:21:18.155Z,19.90
2022-11-05T21:23:47.788Z,13.70
2022-11-05T21:26:17.815Z,17.37
2022-11-05T21:28:45.581Z,16.53
2022-11-05T21:31:13.213Z,17.67
2022-11-05T21:33:40.913Z,16.10
2022-11-05T21:36:10.678Z,15.90
2022-11-05T21:38:38.459Z,23.50
2022-11-05T21:41:08.385Z,14.20
2022-11-05T21:43:36.781Z,15.27
2022-11-05T21:46:05.580Z,15.20
2022-11-05T21:48:33.843Z,16.30
2022-11-05T21:51:19.123Z,14.53
2022-11-05T21:54:04.492Z,11.73
2022-11-05T21:56:51.609Z,13.20
2022-11-05T21:59:38.333Z,17.87
2022-11-05T22:02:06.586Z,14.97
2022-11-05T22:04:36.775Z,17.30
2022-11-05T22:07:04.958Z,15.57
2022-11-05T22:09:32.649Z,18.50
2022-11-05T22:12:01.987Z,17.70
2022-11-05T22:14:30.063Z,14.30
2022-11-05T22:16:58.206Z,15.23
2022-11-05T22:19:26.515Z,18.83
2022-11-05T22:21:54.246Z,15.03
2022-11-05T22:24:22.164Z,14.50
2022-11-05T22:26:49.981Z,12.00
2022-11-05T22:29:18.898Z,13.60
2022-11-05T22:31:46.567Z,12.77
2022-11-05T22:34:14.310Z,13.63
2022-11-05T22:36:42.016Z,12.83
2022-11-05T22:39:10.723Z,11.93
2022-11-05T22:41:38.561Z,20.27
2022-11-05T22:44:06.435Z,11.67
2022-11-05T22:46:35.509Z,13.70
2022-11-05T22:49:03.149Z,14.47
2022-11-05T22:51:32.721Z,13.83
2022-11-05T22:54:01.133Z,16.40
2022-11-05T22:56:30.769Z,12.63
2022-11-05T22:59:02.490Z,14.70
2022-11-05T23:01:30.451Z,14.40
2022-11-05T23:04:00.437Z,13.70
2022-11-05T23:06:49.787Z,13.50
2022-11-05T23:09:40.305Z,11.53
2022-11-05T23:12:18.974Z,14.90
2022-11-05T23:14:46.673Z,16.23
2022-11-05T23:17:31.907Z,12.00
2022-11-05T23:20:18.467Z,15.93
2022-11-05T23:23:03.688Z,15.57
2022-11-05T23:25:31.442Z,15.87
2022-11-05T23:27:59.047Z,15.30
2022-11-05T23:30:27.898Z,15.67
2022-11-05T23:32:55.589Z,15.67
2022-11-05T23:35:38.701Z,15.47
2022-11-05T23:38:23.374Z,14.50
2022-11-05T23:41:08.806Z,13.83
2022-11-05T23:43:54.042Z,18.77
2022-11-05T23:46:39.396Z,16.17
2022-11-05T23:49:08.429Z,15.50
2022-11-05T23:51:37.537Z,11.33
2022-11-05T23:54:05.342Z,16.43
2022-11-05T23:56:33.199Z,14.53
2022-11-05T23:59:00.815Z,14.80
